Time;durP1;ratioP1;P1;durP2;ratioP2;P2;SDS_P1;SDS_P2;PMS_P1;PMS_P2;Temp;Humidity;BMP_temperature;BMP_pressure;BME280_temperature;BME280_humidity;BME280_pressure;Samples;Min_cycle;Max_cycle;Signal;HPM_P1;HPM_P2
2022/04/15 00:01:20;;;;;;;9.35;5.18;;;9.10;99.90;;;;;;5110240;28;20369;-67
2022/04/15 00:03:46;;;;;;;11.63;5.88;;;9.10;99.90;;;;;;5109635;28;20039;-67
2022/04/15 00:06:12;;;;;;;12.00;6.28;;;9.00;99.90;;;;;;5110138;28;20373;-67
2022/04/15 00:08:38;;;;;;;14.52;6.45;;;9.10;99.90;;;;;;5110730;28;20133;-67
2022/04/15 00:11:04;;;;;;;11.23;5.93;;;9.10;99.90;;;;;;5112215;28;20172;-67
2022/04/15 00:13:32;;;;;;;11.38;6.28;;;9.00;99.90;;;;;;5087715;28;20404;-67
2022/04/15 00:15:59;;;;;;;11.27;5.70;;;9.10;99.90;;;;;;5090049;28;20572;-67
2022/04/15 00:18:24;;;;;;;14.73;6.07;;;9.10;99.90;;;;;;5089486;28;20515;-67
2022/04/15 00:20:52;;;;;;;11.35;5.95;;;9.10;99.90;;;;;;5071255;28;20048;-67
2022/04/15 00:23:18;;;;;;;13.25;6.53;;;9.00;99.90;;;;;;5071815;28;20093;-67
2022/04/15 00:25:44;;;;;;;11.02;6.28;;;9.10;99.90;;;;;;5091615;28;20040;-67
2022/04/15 00:28:10;;;;;;;10.88;6.45;;;9.00;99.90;;;;;;5091710;28;20040;-67
2022/04/15 00:30:36;;;;;;;10.18;5.90;;;9.00;99.90;;;;;;5108888;28;20066;-67
2022/04/15 00:33:01;;;;;;;14.07;6.88;;;9.10;99.90;;;;;;5090608;28;20110;-67
2022/04/15 00:35:27;;;;;;;10.98;5.50;;;9.70;99.90;;;;;;5109221;28;20047;-67
2022/04/15 00:37:53;;;;;;;14.32;5.90;;;9.10;99.90;;;;;;5090960;28;20070;-67
2022/04/15 00:40:18;;;;;;;10.27;5.57;;;9.00;99.90;;;;;;5108577;28;20204;-67
2022/04/15 00:42:44;;;;;;;14.38;5.93;;;9.10;99.90;;;;;;5110507;28;20472;-67
2022/04/15 00:45:10;;;;;;;15.35;5.20;;;9.10;99.90;;;;;;5091718;28;20446;-67
2022/04/15 00:47:41;;;;;;;11.55;4.90;;;9.10;99.90;;;;;;5112374;28;20039;-67
2022/04/15 00:50:07;;;;;;;10.63;5.00;;;9.10;99.90;;;;;;5112031;28;20048;-67
2022/04/15 00:52:39;;;;;;;8.88;5.40;;;9.20;99.90;;;;;;5109208;28;20437;-67
2022/04/15 00:55:06;;;;;;;12.20;5.10;;;9.20;99.90;;;;;;5109199;28;20048;-67
2022/04/15 00:57:33;;;;;;;12.20;5.28;;;9.30;99.90;;;;;;5109104;28;20051;-67
2022/04/15 01:00:03;;;;;;;8.70;5.40;;;9.20;99.90;;;;;;5107386;28;20051;-67
2022/04/15 01:02:29;;;;;;;9.90;4.85;;;9.20;99.90;;;;;;5107090;28;20039;-67
2022/04/15 01:04:56;;;;;;;6.75;4.03;;;9.20;99.90;;;;;;5088519;28;20044;-67
2022/04/15 01:07:25;;;;;;;9.35;4.57;;;9.20;99.90;;;;;;5088290;28;20087;-67
2022/04/15 01:09:52;;;;;;;9.57;4.20;;;9.30;99.90;;;;;;5088307;28;20051;-67
2022/04/15 01:12:20;;;;;;;7.80;4.07;;;9.40;99.90;;;;;;5088263;28;20044;-68
2022/04/15 01:14:47;;;;;;;9.05;4.70;;;9.40;99.90;;;;;;5086461;28;20058;-67
2022/04/15 01:17:13;;;;;;;8.05;4.40;;;9.40;99.90;;;;;;5072411;28;20044;-67
2022/04/15 01:19:39;;;;;;;9.23;4.20;;;9.50;99.90;;;;;;5082256;28;20105;-68
2022/04/15 01:22:11;;;;;;;8.13;4.10;;;9.70;99.90;;;;;;5108656;28;20042;-67
2022/04/15 01:24:38;;;;;;;7.13;4.10;;;9.40;99.90;;;;;;5109119;28;20032;-67
2022/04/15 01:27:06;;;;;;;12.88;4.43;;;9.50;99.90;;;;;;5108705;28;20139;-68
2022/04/15 01:29:39;;;;;;;10.32;4.38;;;9.50;99.90;;;;;;5089967;28;20047;-68
2022/04/15 01:32:05;;;;;;;12.82;4.30;;;9.40;99.90;;;;;;5091382;28;20044;-67
2022/04/15 01:34:32;;;;;;;8.40;3.90;;;9.40;99.90;;;;;;5108008;28;20397;-67
2022/04/15 01:37:03;;;;;;;9.10;4.20;;;9.40;99.90;;;;;;5103012;28;20044;-67
2022/04/15 01:39:31;;;;;;;11.98;4.35;;;9.30;99.90;;;;;;5107885;28;20044;-67
2022/04/15 01:41:57;;;;;;;11.82;4.10;;;9.40;99.90;;;;;;5088897;28;20120;-67
2022/04/15 01:44:23;;;;;;;7.10;4.30;;;9.30;99.90;;;;;;5107508;28;20479;-67
2022/04/15 01:46:48;;;;;;;10.77;4.28;;;9.40;99.90;;;;;;5108460;28;20047;-67
2022/04/15 01:49:14;;;;;;;17.30;5.07;;;9.40;99.90;;;;;;5107783;28;20035;-67
2022/04/15 01:51:39;;;;;;;11.32;4.32;;;9.50;99.90;;;;;;5073297;28;20055;-67
2022/04/15 01:54:05;;;;;;;10.73;4.60;;;9.50;99.90;;;;;;5091991;28;20422;-67
2022/04/15 01:56:31;;;;;;;11.38;4.72;;;9.50;99.90;;;;;;5107964;28;20097;-67
2022/04/15 01:58:56;;;;;;;10.05;4.55;;;9.50;99.90;;;;;;5107715;28;20051;-67
2022/04/15 02:01:22;;;;;;;11.00;5.10;;;9.50;99.90;;;;;;5108290;28;20456;-67
2022/04/15 02:03:48;;;;;;;10.40;4.97;;;9.50;99.90;;;;;;5107465;28;20040;-67
2022/04/15 02:06:13;;;;;;;14.32;5.10;;;9.40;99.90;;;;;;5109150;28;20082;-67
2022/04/15 02:08:39;;;;;;;15.38;5.22;;;9.50;99.90;;;;;;5108057;28;20058;-67
2022/04/15 02:11:04;;;;;;;17.85;6.07;;;9.50;99.90;;;;;;5107660;28;20050;-67
2022/04/15 02:13:30;;;;;;;16.38;5.57;;;9.50;99.90;;;;;;5108137;28;20092;-67
2022/04/15 02:15:56;;;;;;;13.23;5.20;;;10.50;99.90;;;;;;5089293;28;20380;-67
2022/04/15 02:18:21;;;;;;;15.35;5.40;;;9.50;99.90;;;;;;5110327;28;20071;-67
2022/04/15 02:20:47;;;;;;;13.55;5.78;;;9.50;99.90;;;;;;5111692;28;20054;-67
2022/04/15 02:23:12;;;;;;;16.02;5.72;;;9.50;99.90;;;;;;5112900;28;20046;-67
2022/04/15 02:25:38;;;;;;;14.73;6.28;;;10.40;99.90;;;;;;5109468;28;20032;-68
2022/04/15 02:28:04;;;;;;;15.93;6.43;;;9.40;99.90;;;;;;5098919;28;20032;-67
2022/04/15 02:30:29;;;;;;;17.60;6.20;;;9.40;99.90;;;;;;5092115;28;20058;-67
2022/04/15 02:32:55;;;;;;;14.55;6.47;;;9.40;99.90;;;;;;5111233;28;20106;-67
2022/04/15 02:35:20;;;;;;;15.25;6.28;;;9.40;99.90;;;;;;5113696;28;20062;-67
2022/04/15 02:37:46;;;;;;;13.30;6.50;;;9.40;99.90;;;;;;5110880;28;20063;-67
2022/04/15 02:40:12;;;;;;;13.15;6.38;;;9.40;99.90;;;;;;5112480;28;20039;-67
2022/04/15 02:42:37;;;;;;;14.95;6.95;;;9.40;99.90;;;;;;5113716;28;20050;-68
2022/04/15 02:45:04;;;;;;;16.00;7.38;;;9.40;99.90;;;;;;5110060;28;20036;-68
2022/04/15 02:47:30;;;;;;;19.00;9.93;;;9.40;99.90;;;;;;5112424;28;20093;-68
2022/04/15 02:49:55;;;;;;;19.10;11.20;;;10.30;99.90;;;;;;5109683;28;20043;-68
2022/04/15 02:52:21;;;;;;;17.23;10.52;;;9.40;99.90;;;;;;5105502;28;20450;-68
2022/04/15 02:54:47;;;;;;;17.20;11.30;;;9.50;99.90;;;;;;5113324;27;20050;-68
2022/04/15 02:57:13;;;;;;;18.05;11.27;;;9.40;99.90;;;;;;5117820;27;20050;-68
2022/04/15 02:59:38;;;;;;;14.45;10.73;;;9.40;99.90;;;;;;5131310;27;20047;-68
2022/04/15 03:02:04;;;;;;;16.23;10.80;;;9.30;99.90;;;;;;5129661;27;20046;-68
2022/04/15 03:04:30;;;;;;;15.13;10.10;;;9.30;99.90;;;;;;5110271;28;20043;-68
2022/04/15 03:06:55;;;;;;;12.75;9.00;;;9.30;99.90;;;;;;5124126;27;20043;-68
2022/04/15 03:09:28;;;;;;;9.90;7.68;;;9.20;99.90;;;;;;5131556;27;20406;-68
2022/04/15 03:11:53;;;;;;;10.52;6.93;;;9.20;99.90;;;;;;5131174;27;20075;-68
2022/04/15 03:14:19;;;;;;;10.75;6.55;;;9.20;99.90;;;;;;5130751;27;20431;-68
2022/04/15 03:16:44;;;;;;;10.10;6.65;;;9.30;99.90;;;;;;5104774;28;20396;-68
2022/04/15 03:19:10;;;;;;;8.25;5.90;;;9.10;99.90;;;;;;5099445;28;20048;-67
2022/04/15 03:21:38;;;;;;;7.90;5.65;;;9.10;99.90;;;;;;5109404;27;20058;-68
2022/04/15 03:24:04;;;;;;;7.78;5.50;;;9.00;99.90;;;;;;5131917;27;20407;-68
2022/04/15 03:26:30;;;;;;;8.02;5.65;;;8.90;99.90;;;;;;5130920;27;20035;-67
2022/04/15 03:28:56;;;;;;;8.18;5.65;;;8.90;99.90;;;;;;5128667;27;20103;-67
2022/04/15 03:31:22;;;;;;;7.05;5.32;;;8.90;99.90;;;;;;5095489;27;20179;-67
2022/04/15 03:33:47;;;;;;;9.38;6.13;;;8.90;99.90;;;;;;5109645;27;20088;-68
2022/04/15 03:36:13;;;;;;;7.43;5.45;;;8.80;99.90;;;;;;5110998;28;20438;-67
2022/04/15 03:38:39;;;;;;;8.45;5.22;;;8.80;99.90;;;;;;5110435;28;20039;-67
2022/04/15 03:41:06;;;;;;;9.38;6.13;;;8.80;99.90;;;;;;5111795;27;20035;-67
2022/04/15 03:43:32;;;;;;;6.80;4.50;;;8.70;99.90;;;;;;5131182;27;20078;-68
2022/04/15 03:45:58;;;;;;;5.97;3.90;;;9.40;99.90;;;;;;5129647;27;20706;-67
2022/04/15 03:48:25;;;;;;;4.78;3.60;;;8.70;99.90;;;;;;5131201;27;20035;-67
2022/04/15 03:50:51;;;;;;;4.43;3.30;;;8.70;99.90;;;;;;5103213;27;20050;-67
2022/04/15 03:53:17;;;;;;;5.07;3.47;;;8.60;99.90;;;;;;5116033;27;20043;-67
2022/04/15 03:55:42;;;;;;;4.47;2.90;;;8.60;99.90;;;;;;5129030;27;20065;-67
2022/04/15 03:58:08;;;;;;;7.18;3.30;;;8.70;99.90;;;;;;5112656;27;20047;-67
2022/04/15 04:00:34;;;;;;;5.72;3.53;;;8.70;99.90;;;;;;5111157;27;20039;-67
2022/04/15 04:02:59;;;;;;;6.25;3.58;;;8.70;99.90;;;;;;5107860;27;20049;-67
2022/04/15 04:05:25;;;;;;;6.43;3.92;;;8.60;99.90;;;;;;5112227;27;20039;-67
2022/04/15 04:07:50;;;;;;;5.85;3.55;;;8.70;99.90;;;;;;5130168;27;20108;-67
2022/04/15 04:10:17;;;;;;;5.32;3.30;;;9.10;99.90;;;;;;5121076;27;20050;-67
2022/04/15 04:12:44;;;;;;;6.25;3.33;;;8.70;99.90;;;;;;5094411;27;20046;-67
2022/04/15 04:15:10;;;;;;;6.88;4.07;;;8.70;99.90;;;;;;5090539;28;20039;-67
2022/04/15 04:17:36;;;;;;;5.68;3.92;;;8.70;99.90;;;;;;5114356;27;20092;-67
2022/04/15 04:20:04;;;;;;;6.32;3.92;;;8.70;99.90;;;;;;5129522;27;20494;-68
2022/04/15 04:22:31;;;;;;;7.57;3.88;;;8.70;99.90;;;;;;5130206;27;20039;-67
2022/04/15 04:24:57;;;;;;;6.50;4.00;;;8.70;99.90;;;;;;5110360;27;20108;-68
2022/04/15 04:27:23;;;;;;;6.32;3.70;;;8.70;99.90;;;;;;5125589;27;20039;-67
2022/04/15 04:29:49;;;;;;;5.47;3.53;;;8.60;99.90;;;;;;5128948;27;20074;-68
2022/04/15 04:32:16;;;;;;;7.97;4.10;;;8.70;99.90;;;;;;5129323;27;20074;-67
2022/04/15 04:34:42;;;;;;;8.18;3.78;;;8.70;99.90;;;;;;5127502;27;20492;-67
2022/04/15 04:37:07;;;;;;;5.43;3.65;;;8.60;99.90;;;;;;5128648;27;20073;-67
2022/04/15 04:39:33;;;;;;;7.43;4.15;;;8.50;99.90;;;;;;5091365;28;20047;-67
2022/04/15 04:42:00;;;;;;;8.45;4.22;;;8.50;99.90;;;;;;5108527;28;20081;-67
2022/04/15 04:44:27;;;;;;;9.07;4.35;;;8.60;99.90;;;;;;5089106;28;20228;-68
2022/04/15 04:46:53;;;;;;;6.68;4.28;;;8.60;99.90;;;;;;5109432;28;20083;-67
2022/04/15 04:49:19;;;;;;;6.40;3.83;;;8.50;99.90;;;;;;5110693;27;20132;-67
2022/04/15 04:51:45;;;;;;;7.97;3.85;;;8.60;99.90;;;;;;5109368;27;20127;-68
2022/04/15 04:54:11;;;;;;;6.35;3.97;;;8.50;99.90;;;;;;5109197;28;20153;-67
2022/04/15 04:56:36;;;;;;;7.35;4.20;;;8.40;99.90;;;;;;5108512;27;20126;-67
2022/04/15 04:59:03;;;;;;;6.68;3.58;;;9.40;99.90;;;;;;5122246;27;20513;-67
2022/04/15 05:01:28;;;;;;;7.13;3.50;;;8.50;99.90;;;;;;5130200;27;20390;-67
2022/04/15 05:03:54;;;;;;;5.97;3.67;;;8.50;99.90;;;;;;5064947;27;20052;-67
2022/04/15 05:06:19;;;;;;;5.68;3.50;;;8.50;99.90;;;;;;5111247;28;20108;-67
2022/04/15 05:08:45;;;;;;;5.72;3.80;;;8.40;99.90;;;;;;5108581;28;20059;-67
2022/04/15 05:11:10;;;;;;;6.85;4.20;;;8.40;99.90;;;;;;5096583;28;20487;-67
2022/04/15 05:13:36;;;;;;;8.30;4.38;;;8.50;99.90;;;;;;5128672;27;20050;-67
2022/04/15 05:16:02;;;;;;;9.77;4.47;;;9.30;99.90;;;;;;5107148;27;20100;-67
2022/04/15 05:18:27;;;;;;;7.70;4.72;;;8.40;99.90;;;;;;5100686;27;20039;-67
2022/04/15 05:20:53;;;;;;;7.65;4.38;;;8.40;99.90;;;;;;5121195;27;20043;-68
2022/04/15 05:23:19;;;;;;;6.95;3.80;;;8.40;99.90;;;;;;5128651;27;20050;-67
2022/04/15 05:25:45;;;;;;;6.70;4.15;;;8.40;99.90;;;;;;5111283;28;20122;-67
2022/04/15 05:28:11;;;;;;;9.50;4.57;;;8.50;99.90;;;;;;5108328;28;20175;-67
2022/04/15 05:30:36;;;;;;;7.15;4.47;;;8.50;99.90;;;;;;5110583;27;20073;-68
2022/04/15 05:33:02;;;;;;;9.88;5.18;;;8.50;99.90;;;;;;5109869;27;20070;-67
2022/04/15 05:35:28;;;;;;;7.88;5.00;;;8.40;99.90;;;;;;5128149;27;20039;-67
2022/04/15 05:37:53;;;;;;;10.05;5.45;;;8.40;99.90;;;;;;5126981;28;20095;-68
2022/04/15 05:40:19;;;;;;;9.73;5.85;;;8.30;99.90;;;;;;5128730;28;20035;-67
2022/04/15 05:42:45;;;;;;;7.57;5.30;;;8.40;99.90;;;;;;5109913;28;20453;-67
2022/04/15 05:45:10;;;;;;;8.93;6.03;;;8.40;99.90;;;;;;5125959;28;20035;-67
2022/04/15 05:47:37;;;;;;;8.23;5.70;;;8.40;99.90;;;;;;5094197;28;20043;-67
2022/04/15 05:50:04;;;;;;;8.05;6.07;;;8.50;99.90;;;;;;5127568;28;20122;-67
2022/04/15 05:52:29;;;;;;;7.80;5.90;;;8.50;99.90;;;;;;5088531;28;20151;-68
2022/04/15 05:54:56;;;;;;;9.57;5.43;;;8.50;99.90;;;;;;5122374;27;20371;-67
2022/04/15 05:57:23;;;;;;;8.63;6.10;;;8.60;99.90;;;;;;5095563;28;20043;-69
2022/04/15 05:59:48;;;;;;;9.07;6.22;;;8.50;99.90;;;;;;5075405;28;20139;-67
2022/04/15 06:02:14;;;;;;;9.60;6.25;;;8.50;99.90;;;;;;5112514;27;20044;-67
2022/04/15 06:04:39;;;;;;;8.90;6.32;;;8.50;99.90;;;;;;5122782;27;20050;-67
2022/04/15 06:07:05;;;;;;;10.73;6.15;;;8.50;99.90;;;;;;5114307;27;20474;-67
2022/04/15 06:09:31;;;;;;;8.80;6.45;;;8.50;99.90;;;;;;5111781;27;20118;-66
2022/04/15 06:11:56;;;;;;;8.25;6.22;;;8.50;99.90;;;;;;5131920;27;20047;-67
2022/04/15 06:14:22;;;;;;;11.40;6.82;;;8.60;99.90;;;;;;5130870;27;20035;-68
2022/04/15 06:16:49;;;;;;;10.30;7.05;;;8.60;99.90;;;;;;5131584;27;20047;-67
2022/04/15 06:19:14;;;;;;;12.02;7.85;;;8.60;99.90;;;;;;5132424;27;20424;-67
2022/04/15 06:21:40;;;;;;;11.00;7.55;;;8.60;99.90;;;;;;5124368;27;20055;-67
2022/04/15 06:24:08;;;;;;;12.45;8.20;;;8.70;99.90;;;;;;5112926;27;20032;-67
2022/04/15 06:26:34;;;;;;;12.35;8.02;;;8.70;99.90;;;;;;5078295;28;20047;-67
2022/04/15 06:29:00;;;;;;;13.32;8.35;;;8.70;99.90;;;;;;5090748;28;20411;-67
2022/04/15 06:31:26;;;;;;;16.40;10.00;;;8.80;99.90;;;;;;5091120;28;20473;-67
2022/04/15 06:33:52;;;;;;;13.88;9.35;;;8.90;99.90;;;;;;5091862;28;20055;-67
2022/04/15 06:36:19;;;;;;;17.83;10.20;;;8.80;99.90;;;;;;5092308;28;20063;-67
2022/04/15 06:38:45;;;;;;;23.42;11.55;;;8.80;99.90;;;;;;5090062;28;20044;-68
2022/04/15 06:41:11;;;;;;;17.85;11.15;;;8.80;99.90;;;;;;5088035;28;20043;-67
2022/04/15 06:43:36;;;;;;;18.75;11.43;;;9.00;99.90;;;;;;5092416;28;20043;-67
2022/04/15 06:46:03;;;;;;;21.17;10.90;;;9.00;99.90;;;;;;5105393;28;20032;-67
2022/04/15 06:48:29;;;;;;;18.42;10.23;;;9.00;99.90;;;;;;5091535;28;20384;-67
2022/04/15 06:50:55;;;;;;;18.20;10.55;;;10.00;99.90;;;;;;5102057;27;20136;-68
2022/04/15 06:53:23;;;;;;;18.83;11.02;;;9.00;99.90;;;;;;5111368;28;20040;-67
2022/04/15 06:55:50;;;;;;;17.65;10.80;;;9.00;99.90;;;;;;5108327;28;20108;-68
2022/04/15 06:58:17;;;;;;;17.63;9.82;;;9.10;99.90;;;;;;5113428;27;20039;-68
2022/04/15 07:00:42;;;;;;;20.90;10.30;;;9.10;99.90;;;;;;5130290;27;20050;-67
2022/04/15 07:03:12;;;;;;;18.42;10.43;;;10.20;99.90;;;;;;5111846;27;20453;-67
2022/04/15 07:05:39;;;;;;;14.70;9.63;;;9.30;99.90;;;;;;5105120;28;20040;-68
2022/04/15 07:08:07;;;;;;;14.65;9.23;;;9.30;99.90;;;;;;5090725;28;20095;-68
2022/04/15 07:10:33;;;;;;;16.17;9.30;;;9.40;99.90;;;;;;5092132;28;20059;-68
2022/04/15 07:12:58;;;;;;;15.88;8.65;;;9.40;99.90;;;;;;5109892;28;20079;-69
2022/04/15 07:15:25;;;;;;;17.60;8.90;;;9.50;99.90;;;;;;5109616;28;20036;-68
2022/04/15 07:17:51;;;;;;;17.17;8.80;;;9.50;99.90;;;;;;5110685;28;20044;-68
2022/04/15 07:20:16;;;;;;;14.75;8.25;;;9.60;99.90;;;;;;5110463;28;20475;-68
2022/04/15 07:22:42;;;;;;;15.00;7.97;;;9.80;99.90;;;;;;5110505;28;20126;-68
2022/04/15 07:25:08;;;;;;;11.93;7.95;;;9.90;99.90;;;;;;5111208;27;20498;-68
2022/04/15 07:27:34;;;;;;;13.95;7.82;;;10.00;99.90;;;;;;5110176;28;20047;-67
2022/04/15 07:30:00;;;;;;;13.85;7.57;;;10.10;99.90;;;;;;5108968;28;20044;-68
2022/04/15 07:32:27;;;;;;;10.50;6.72;;;10.20;99.90;;;;;;5110972;28;20040;-68
2022/04/15 07:34:53;;;;;;;12.68;7.05;;;10.20;99.90;;;;;;5109371;28;20088;-69
2022/04/15 07:37:18;;;;;;;14.32;6.90;;;10.20;99.90;;;;;;5122562;27;20042;-67
2022/04/15 07:39:45;;;;;;;12.90;6.60;;;10.20;99.90;;;;;;5109732;28;20054;-67
2022/04/15 07:42:12;;;;;;;11.98;6.68;;;10.40;99.90;;;;;;5108746;28;20495;-68
2022/04/15 07:44:41;;;;;;;17.55;7.50;;;10.30;99.90;;;;;;5102847;27;20070;-67
2022/04/15 07:47:10;;;;;;;14.05;7.03;;;11.20;99.90;;;;;;5092963;27;20537;-67
2022/04/15 07:49:35;;;;;;;15.25;6.78;;;10.10;99.90;;;;;;5112285;27;20079;-67
2022/04/15 07:52:04;;;;;;;14.00;6.72;;;10.10;99.90;;;;;;5123303;27;20544;-67
2022/04/15 07:54:30;;;;;;;16.08;7.20;;;10.10;99.90;;;;;;5111278;27;20055;-67
2022/04/15 07:56:56;;;;;;;15.43;7.53;;;10.30;99.90;;;;;;5100624;27;20460;-67
2022/04/15 07:59:21;;;;;;;15.07;7.15;;;10.20;99.90;;;;;;5109148;27;20077;-67
2022/04/15 08:01:47;;;;;;;13.80;6.93;;;10.20;99.90;;;;;;5110056;27;20035;-67
2022/04/15 08:04:13;;;;;;;15.00;7.28;;;10.30;99.90;;;;;;5091145;28;20130;-68
2022/04/15 08:06:38;;;;;;;16.67;7.35;;;10.40;99.90;;;;;;5114679;27;20039;-68
2022/04/15 08:09:04;;;;;;;13.65;7.68;;;10.60;99.90;;;;;;5129467;27;20047;-68
2022/04/15 08:11:31;;;;;;;14.95;6.97;;;10.80;99.90;;;;;;5121043;27;20105;-68
2022/04/15 08:13:57;;;;;;;12.65;6.85;;;11.00;99.90;;;;;;5115643;27;20516;-68
2022/04/15 08:16:27;;;;;;;15.30;6.82;;;11.30;99.90;;;;;;5124134;27;20110;-68
2022/04/15 08:18:55;;;;;;;12.80;6.15;;;11.40;99.90;;;;;;5120992;27;20403;-69
2022/04/15 08:21:21;;;;;;;12.50;6.40;;;11.60;99.90;;;;;;5111502;28;20132;-69
2022/04/15 08:23:47;;;;;;;10.98;5.88;;;11.80;99.90;;;;;;5108371;28;20075;-69
2022/04/15 08:26:13;;;;;;;9.50;5.68;;;11.90;99.90;;;;;;5102732;28;20042;-68
2022/04/15 08:28:38;;;;;;;8.90;5.15;;;12.10;99.90;;;;;;5103451;27;20043;-68
2022/04/15 08:31:04;;;;;;;10.18;4.93;;;12.30;99.90;;;;;;5113102;27;20039;-68
2022/04/15 08:33:30;;;;;;;8.57;4.85;;;12.50;99.90;;;;;;5110989;28;20111;-69
2022/04/15 08:35:56;;;;;;;11.13;5.05;;;12.60;99.90;;;;;;5108687;28;20540;-67
2022/04/15 08:38:21;;;;;;;10.02;5.65;;;12.60;99.90;;;;;;5108711;28;20120;-66
2022/04/15 08:40:50;;;;;;;9.68;5.68;;;12.50;99.90;;;;;;5106315;28;20119;-67
2022/04/15 08:43:16;;;;;;;12.68;5.78;;;12.40;99.90;;;;;;5088027;28;20512;-66
2022/04/15 08:45:45;;;;;;;11.65;5.75;;;12.40;99.90;;;;;;5086404;28;20094;-66
2022/04/15 08:48:11;;;;;;;13.38;5.70;;;12.40;99.90;;;;;;5070096;28;20055;-67
2022/04/15 08:50:38;;;;;;;10.38;5.28;;;13.20;99.90;;;;;;5067676;28;20095;-69
2022/04/15 08:53:04;;;;;;;11.05;5.30;;;12.60;99.90;;;;;;5086677;28;20055;-68
2022/04/15 08:55:30;;;;;;;11.98;6.10;;;12.70;99.90;;;;;;5066825;28;20044;-69
2022/04/15 08:57:57;;;;;;;8.93;5.10;;;12.90;99.90;;;;;;5067068;28;20071;-68
2022/04/15 09:00:24;;;;;;;10.07;5.10;;;13.20;99.90;;;;;;5066336;28;20143;-69
2022/04/15 09:02:51;;;;;;;9.27;5.63;;;13.70;99.90;;;;;;5067798;28;20051;-69
2022/04/15 09:05:25;;;;;;;9.90;5.30;;;13.90;99.90;;;;;;5067691;28;20044;-68
2022/04/15 09:08:08;;;;;;;10.88;5.50;;;14.00;99.90;;;;;;5067897;28;20045;-69
2022/04/15 09:10:34;;;;;;;9.48;5.53;;;14.10;99.90;;;;;;5067034;28;20048;-69
2022/04/15 09:13:02;;;;;;;11.10;5.22;;;14.20;99.90;;;;;;5068731;28;20044;-69
2022/04/15 09:15:28;;;;;;;6.85;4.88;;;14.40;99.90;;;;;;5065679;28;20110;-69
2022/04/15 09:17:54;;;;;;;10.05;4.90;;;14.60;99.90;;;;;;5067893;28;20078;-69
2022/04/15 09:20:21;;;;;;;8.55;5.00;;;16.10;99.90;;;;;;5066837;28;20044;-69
2022/04/15 09:22:52;;;;;;;9.40;5.13;;;15.40;99.90;;;;;;5066058;28;20139;-68
2022/04/15 09:25:22;;;;;;;12.52;5.35;;;15.80;99.90;;;;;;5067827;28;20058;-68
2022/04/15 09:27:51;;;;;;;11.45;4.97;;;15.10;99.90;;;;;;5068605;28;20044;-68
2022/04/15 09:30:18;;;;;;;9.55;4.85;;;14.80;99.90;;;;;;5066976;28;20121;-69
2022/04/15 09:32:44;;;;;;;10.68;5.22;;;14.40;99.90;;;;;;5065220;28;20135;-68
2022/04/15 09:35:15;;;;;;;9.38;5.30;;;14.30;99.90;;;;;;5067963;28;20447;-68
2022/04/15 09:37:43;;;;;;;10.02;5.50;;;14.20;99.90;;;;;;5066547;28;20052;-68
2022/04/15 09:40:22;;;;;;;11.50;4.97;;;14.00;99.90;;;;;;5064927;28;20052;-68
2022/04/15 09:42:52;;;;;;;10.70;5.57;;;14.00;99.90;;;;;;5068006;28;20044;-67
2022/04/15 09:45:19;;;;;;;9.60;6.00;;;13.90;99.90;;;;;;5065343;28;20047;-67
2022/04/15 09:47:53;;;;;;;10.75;5.78;;;13.90;99.90;;;;;;5065723;28;20074;-68
2022/04/15 09:50:43;;;;;;;10.27;6.00;;;13.90;99.90;;;;;;5067732;28;20082;-68
2022/04/15 09:53:14;;;;;;;9.63;6.03;;;13.80;99.90;;;;;;5062540;28;20500;-67
2022/04/15 09:55:42;;;;;;;10.88;6.22;;;13.80;99.90;;;;;;5052814;28;20048;-69
2022/04/15 09:58:12;;;;;;;12.40;6.03;;;13.70;99.90;;;;;;5090504;28;20067;-68
2022/04/15 10:00:40;;;;;;;12.23;6.10;;;13.60;99.90;;;;;;5085949;28;20158;-68
2022/04/15 10:03:18;;;;;;;9.48;5.90;;;13.60;99.90;;;;;;5078746;28;20040;-69
2022/04/15 10:05:44;;;;;;;10.15;5.85;;;13.60;99.90;;;;;;5089040;28;20050;-69
2022/04/15 10:08:10;;;;;;;11.32;6.43;;;13.50;99.90;;;;;;5088912;28;20065;-68
2022/04/15 10:10:36;;;;;;;11.90;5.85;;;13.40;99.90;;;;;;5107611;28;20044;-69
2022/04/15 10:13:05;;;;;;;11.80;6.25;;;13.30;99.90;;;;;;5089549;28;20041;-69
2022/04/15 10:15:37;;;;;;;8.85;5.50;;;13.30;99.90;;;;;;5106329;28;20396;-68
2022/04/15 10:18:03;;;;;;;8.98;5.85;;;13.30;99.90;;;;;;5089270;28;20043;-68
2022/04/15 10:20:31;;;;;;;9.95;5.65;;;13.20;99.90;;;;;;5108244;28;20118;-68
2022/04/15 10:23:04;;;;;;;9.10;5.45;;;13.20;99.90;;;;;;5088166;28;20126;-69
2022/04/15 10:25:30;;;;;;;9.52;5.07;;;13.30;99.90;;;;;;5089055;28;20396;-67
2022/04/15 10:28:18;;;;;;;10.95;5.35;;;13.20;99.90;;;;;;5107341;28;20139;-68
2022/04/15 10:31:05;;;;;;;9.73;5.70;;;13.30;99.90;;;;;;5105489;28;20154;-67
2022/04/15 10:33:33;;;;;;;9.93;5.53;;;13.30;99.90;;;;;;5107959;28;20100;-68
2022/04/15 10:36:10;;;;;;;9.38;5.93;;;13.40;99.90;;;;;;5087995;28;20059;-68
2022/04/15 10:38:36;;;;;;;10.68;5.72;;;13.40;99.90;;;;;;5091175;28;20452;-68
2022/04/15 10:41:16;;;;;;;10.63;6.20;;;13.40;99.90;;;;;;5095033;28;20036;-68
2022/04/15 10:44:14;;;;;;;10.32;5.93;;;13.40;99.90;;;;;;5093692;28;20130;-69
2022/04/15 10:46:40;;;;;;;11.73;6.30;;;13.40;99.90;;;;;;5078926;28;20161;-68
2022/04/15 10:49:23;;;;;;;7.97;5.55;;;13.40;99.90;;;;;;5111474;28;20062;-67
2022/04/15 10:52:02;;;;;;;9.10;5.43;;;13.30;99.90;;;;;;5104349;28;20067;-68
2022/04/15 10:54:31;;;;;;;10.63;5.57;;;13.30;99.90;;;;;;5072364;28;20412;-68
2022/04/15 10:57:03;;;;;;;9.05;5.72;;;13.10;99.90;;;;;;5089321;28;20528;-67
2022/04/15 11:02:22;;;;;;;10.82;6.03;;;13.10;99.90;;;;;;5091020;28;20048;-68
2022/04/15 11:04:52;;;;;;;10.63;6.13;;;13.10;99.90;;;;;;5072087;28;20036;-69
2022/04/15 11:07:28;;;;;;;9.48;6.00;;;13.10;99.90;;;;;;5090746;28;20044;-68
2022/04/15 11:09:55;;;;;;;10.95;5.47;;;13.00;99.90;;;;;;5089914;28;20492;-68
2022/04/15 11:12:36;;;;;;;10.90;5.57;;;13.00;99.90;;;;;;5089976;28;20429;-68
2022/04/15 11:15:02;;;;;;;9.45;5.70;;;13.00;99.90;;;;;;5092370;28;20044;-69
2022/04/15 11:17:46;;;;;;;8.73;5.70;;;13.00;99.90;;;;;;5090648;28;20048;-69
2022/04/15 11:20:12;;;;;;;8.73;5.60;;;13.00;99.90;;;;;;5089189;28;20052;-68
2022/04/15 11:22:42;;;;;;;8.60;6.05;;;13.40;99.90;;;;;;5074516;28;20385;-69
2022/04/15 11:25:09;;;;;;;10.00;5.72;;;12.90;99.90;;;;;;5071114;28;20036;-69
2022/04/15 11:27:40;;;;;;;10.00;5.65;;;12.90;99.90;;;;;;5090490;28;20099;-69
2022/04/15 11:30:14;;;;;;;10.48;6.03;;;12.80;99.90;;;;;;5089621;28;20103;-69
2022/04/15 11:32:53;;;;;;;8.52;5.70;;;12.70;99.90;;;;;;5088584;28;20055;-69
2022/04/15 11:35:30;;;;;;;9.60;5.88;;;12.70;99.90;;;;;;5089882;28;20055;-69
2022/04/15 11:38:08;;;;;;;8.95;6.10;;;12.70;99.90;;;;;;5090440;28;20126;-69
2022/04/15 11:40:36;;;;;;;8.38;6.07;;;12.80;99.90;;;;;;5088877;28;20042;-69
2022/04/15 11:43:08;;;;;;;9.40;5.53;;;12.70;99.90;;;;;;5090007;28;20076;-69
2022/04/15 11:45:39;;;;;;;8.45;5.78;;;12.70;99.90;;;;;;5070766;28;20084;-69
2022/04/15 11:48:38;;;;;;;12.55;5.95;;;12.70;99.90;;;;;;5071158;28;20068;-69
2022/04/15 11:51:04;;;;;;;10.43;5.90;;;12.80;99.90;;;;;;5027687;28;20098;-68
2022/04/15 11:53:30;;;;;;;11.48;5.80;;;12.80;99.90;;;;;;5070284;28;20087;-70
2022/04/15 11:55:58;;;;;;;10.68;6.18;;;12.70;99.90;;;;;;5088936;28;20048;-68
2022/04/15 11:58:32;;;;;;;10.23;6.38;;;12.70;99.90;;;;;;5089516;28;20079;-68
2022/04/15 12:01:01;;;;;;;10.32;6.28;;;12.60;99.90;;;;;;5087938;28;20048;-67
2022/04/15 12:03:28;;;;;;;9.18;6.15;;;12.60;99.90;;;;;;5090650;28;20048;-68
2022/04/15 12:05:59;;;;;;;11.57;6.20;;;12.60;99.90;;;;;;5090432;28;20042;-68
2022/04/15 12:08:25;;;;;;;9.40;6.15;;;12.70;99.90;;;;;;5089287;28;20040;-68
2022/04/15 12:10:51;;;;;;;10.05;5.97;;;12.60;99.90;;;;;;5088651;28;20408;-70
2022/04/15 12:13:18;;;;;;;9.02;6.40;;;12.60;99.90;;;;;;5089326;28;20048;-67
2022/04/15 12:15:45;;;;;;;10.73;6.47;;;12.40;99.90;;;;;;5052112;28;20040;-68
2022/04/15 12:18:11;;;;;;;9.93;6.32;;;12.30;99.90;;;;;;5071057;28;20098;-68
2022/04/15 12:20:39;;;;;;;9.38;6.50;;;12.30;99.90;;;;;;5089214;28;20105;-69
2022/04/15 12:23:08;;;;;;;11.95;6.53;;;12.20;99.90;;;;;;5090726;28;20043;-68
2022/04/15 12:31:03;;;;;;;13.55;6.50;;;12.20;99.90;;;;;;5089124;28;20044;-68
2022/04/15 12:33:28;;;;;;;11.10;6.40;;;12.30;99.90;;;;;;5088583;28;20051;-69
2022/04/15 12:36:03;;;;;;;11.35;6.28;;;12.40;99.90;;;;;;5093945;27;20060;-68
2022/04/15 12:38:29;;;;;;;12.05;6.68;;;12.20;99.90;;;;;;5107693;28;20134;-69
2022/04/15 12:41:10;;;;;;;12.68;6.18;;;12.20;99.90;;;;;;5090366;28;20040;-68
2022/04/15 12:43:36;;;;;;;13.65;6.63;;;12.30;99.90;;;;;;5090202;28;20052;-68
2022/04/15 12:46:02;;;;;;;9.70;6.10;;;12.10;99.90;;;;;;5116988;27;20035;-69
2022/04/15 12:48:28;;;;;;;13.38;6.90;;;12.10;99.90;;;;;;5113802;27;20046;-68
2022/04/15 12:50:58;;;;;;;10.45;6.07;;;12.00;99.90;;;;;;5097949;28;20125;-69
2022/04/15 12:53:26;;;;;;;10.85;6.60;;;11.90;99.90;;;;;;5094740;28;20055;-69
2022/04/15 12:55:53;;;;;;;10.27;6.03;;;11.90;99.90;;;;;;5089431;28;20392;-68